Time;durP1;ratioP1;P1;durP2;ratioP2;P2;SDS_P1;SDS_P2;PMS_P1;PMS_P2;Temp;Humidity;BMP_temperature;BMP_pressure;BME280_temperature;BME280_humidity;BME280_pressure;Samples;Min_cycle;Max_cycle;Signal;HPM_P1;HPM_P2
2022/08/23 17:03:31;;;;;;;;;;;24.50;84.50;;;;;;5086061;27;19943;-68
2022/08/23 17:05:56;;;;;;;;;;;23.90;86.20;;;;;;5085754;28;20377;-69
2022/08/23 17:08:22;;;;;;;;;;;23.80;85.80;;;;;;5086378;28;20488;-69
2022/08/23 17:10:47;;;;;;;;;;;23.80;87.30;;;;;;5086155;28;19916;-70
2022/08/23 17:13:13;;;;;;;;;;;23.80;87.80;;;;;;5069000;28;19991;-69
2022/08/23 17:15:40;;;;;;;;;;;23.70;88.90;;;;;;5066782;28;19924;-71
2022/08/23 17:18:05;;;;;;;;;;;23.60;90.40;;;;;;5076630;28;19916;-71
2022/08/23 17:20:33;;;;;;;;;;;23.50;90.00;;;;;;5085333;28;19986;-71
2022/08/23 17:22:59;;;;;;;;;;;23.40;89.60;;;;;;5086399;28;19948;-71
2022/08/23 17:25:24;;;;;;;;;;;23.40;90.10;;;;;;5075400;28;19966;-71
2022/08/23 17:27:50;;;;;;;;;;;23.30;90.50;;;;;;5086107;28;19908;-70
2022/08/23 17:30:17;;;;;;;;;;;23.30;89.60;;;;;;5089078;28;19935;-70
2022/08/23 17:32:43;;;;;;;;;;;23.40;90.10;;;;;;5083720;28;19923;-70
2022/08/23 17:35:09;;;;;;;;;;;23.40;90.50;;;;;;5077896;28;19912;-71
2022/08/23 17:37:35;;;;;;;;;;;23.40;90.00;;;;;;5080348;28;19962;-73
2022/08/23 17:40:03;;;;;;;;;;;23.40;90.20;;;;;;5081456;28;19912;-73
2022/08/23 17:42:29;;;;;;;;;;;23.30;90.30;;;;;;5089077;28;20445;-73
2022/08/23 17:44:55;;;;;;;;;;;23.30;90.50;;;;;;5089173;28;20382;-72
2022/08/23 17:47:24;;;;;;;;;;;23.30;90.10;;;;;;5088313;28;19941;-73
2022/08/23 17:49:49;;;;;;;;;;;23.30;88.90;;;;;;5087882;28;19919;-72
2022/08/23 17:52:15;;;;;;;;;;;23.20;90.10;;;;;;5087803;28;19908;-73
2022/08/23 17:54:41;;;;;;;;;;;23.20;90.40;;;;;;5089109;28;19908;-72
2022/08/23 17:57:07;;;;;;;;;;;23.20;90.10;;;;;;5089042;28;19908;-73
2022/08/23 17:59:33;;;;;;;;;;;23.20;89.90;;;;;;5089050;28;19947;-73
2022/08/23 18:01:59;;;;;;;;;;;23.20;90.00;;;;;;5095394;28;20009;-72
2022/08/23 18:04:24;;;;;;;;;;;23.20;90.00;;;;;;5109277;28;19908;-72
2022/08/23 18:06:50;;;;;;;;;;;23.20;89.00;;;;;;5109451;28;19912;-72
2022/08/23 18:09:16;;;;;;;;;;;23.20;88.10;;;;;;5109215;28;20004;-75
2022/08/23 18:11:41;;;;;;;;;;;23.20;88.60;;;;;;5109230;28;20479;-74
2022/08/23 18:14:07;;;;;;;;;;;23.20;88.40;;;;;;5099754;28;19912;-74
2022/08/23 18:16:32;;;;;;;;;;;23.20;89.80;;;;;;5095728;28;20326;-73
2022/08/23 18:18:58;;;;;;;;;;;23.30;90.90;;;;;;5095278;28;19908;-63
2022/08/23 18:21:24;;;;;;;;;;;23.80;99.90;;;;;;5095130;28;19999;-63
2022/08/23 18:23:50;;;;;;;;;;;23.60;99.90;;;;;;5095205;28;19943;-62
2022/08/23 18:29:13;;;;;;;;;;;23.40;99.90;;;;;;5040032;28;19975;-63
2022/08/23 18:31:39;;;;;;;;;;;23.30;99.90;;;;;;5093901;28;20327;-62
2022/08/23 18:34:05;;;;;;;;;;;23.30;99.90;;;;;;5094773;28;19912;-62
2022/08/23 18:36:30;;;;;;;;;;;23.30;99.90;;;;;;5094950;28;19905;-63
2022/08/23 18:38:56;;;;;;;;;;;23.20;99.90;;;;;;5094853;28;19908;-63
2022/08/23 18:41:21;;;;;;;;;;;23.20;99.90;;;;;;5094797;28;19908;-62
2022/08/23 18:43:46;;;;;;;;;;;23.20;99.90;;;;;;5094728;28;19908;-61
2022/08/23 18:46:12;;;;;;;;;;;23.10;99.90;;;;;;5094820;28;19915;-61
